createdAt,value
2018-07-02T00:04:51.021Z,100278.00
2018-07-02T00:09:55.973Z,100273.00
2018-07-02T00:15:00.697Z,100267.00
2018-07-02T00:20:06.541Z,100262.00
2018-07-02T00:25:11.345Z,100263.00
2018-07-02T00:30:15.948Z,100258.00
2018-07-02T00:35:20.380Z,100252.00
2018-07-02T00:40:25.272Z,100259.00
2018-07-02T00:45:29.726Z,100254.00
2018-07-02T00:50:34.208Z,100250.00
2018-07-02T00:55:39.001Z,100252.00
2018-07-02T01:00:43.902Z,100255.00
2018-07-02T01:05:48.557Z,100258.00
2018-07-02T01:10:53.008Z,100258.00
2018-07-02T01:15:57.505Z,100249.00
2018-07-02T01:21:01.977Z,100246.00
2018-07-02T01:26:06.610Z,100241.00
2018-07-02T01:31:11.173Z,100243.00
2018-07-02T01:36:15.626Z,100229.00
2018-07-02T01:41:20.228Z,100226.00
2018-07-02T01:46:25.061Z,100224.00
2018-07-02T01:51:29.806Z,100225.00
2018-07-02T01:56:34.241Z,100226.00
2018-07-02T02:01:38.840Z,100218.00
2018-07-02T02:06:43.385Z,100215.00
2018-07-02T02:11:47.797Z,100217.00
2018-07-02T02:16:52.441Z,100215.00
2018-07-02T02:21:56.936Z,100210.00
2018-07-02T02:27:01.388Z,100210.00
2018-07-02T02:32:06.019Z,100200.00
2018-07-02T02:37:10.712Z,100202.00
2018-07-02T02:42:15.345Z,100207.00
2018-07-02T02:47:20.520Z,100200.00
2018-07-02T02:52:25.233Z,100198.00
2018-07-02T02:57:29.952Z,100196.00
2018-07-02T03:02:34.446Z,100195.00
2018-07-02T03:07:38.692Z,100192.00
2018-07-02T03:12:43.251Z,100197.00
2018-07-02T03:17:47.698Z,100206.00
2018-07-02T03:22:52.113Z,100202.00
2018-07-02T03:27:56.879Z,100198.00
2018-07-02T03:33:01.869Z,100193.00
2018-07-02T03:38:06.501Z,100198.00
2018-07-02T03:43:11.225Z,100199.00
2018-07-02T03:48:15.936Z,100196.00
2018-07-02T03:53:20.653Z,100203.00
2018-07-02T03:58:24.872Z,100205.00
2018-07-02T04:03:29.337Z,100214.00
2018-07-02T04:08:33.801Z,100216.00
2018-07-02T04:13:38.295Z,100221.00
2018-07-02T04:18:42.476Z,100228.00
2018-07-02T04:23:47.158Z,100225.00
2018-07-02T04:28:51.749Z,100233.00
2018-07-02T04:33:56.178Z,100230.00
2018-07-02T04:39:00.832Z,100238.00
2018-07-02T04:44:05.989Z,100231.00
2018-07-02T04:49:10.640Z,100236.00
2018-07-02T04:54:15.052Z,100230.00
2018-07-02T04:59:19.621Z,100240.00
2018-07-02T05:04:24.105Z,100239.00
2018-07-02T05:09:28.570Z,100246.00
2018-07-02T05:14:33.229Z,100254.00
2018-07-02T05:19:37.745Z,100249.00
2018-07-02T05:24:42.279Z,100253.00
2018-07-02T05:29:46.753Z,100250.00
2018-07-02T05:34:51.193Z,100249.00
2018-07-02T05:39:55.687Z,100245.00
2018-07-02T05:45:00.457Z,100249.00
2018-07-02T05:50:04.941Z,100254.00
2018-07-02T05:55:09.649Z,100256.00
2018-07-02T06:00:14.505Z,100251.00
2018-07-02T06:05:19.033Z,100248.00
2018-07-02T06:10:23.562Z,100245.00
2018-07-02T06:15:28.666Z,100250.00
2018-07-02T06:20:33.261Z,100249.00
2018-07-02T06:25:37.928Z,100246.00
2018-07-02T06:30:42.645Z,100251.00
2018-07-02T06:35:47.409Z,100249.00
2018-07-02T06:40:52.138Z,100248.00
2018-07-02T06:45:56.676Z,100257.00
2018-07-02T06:51:01.579Z,100250.00
2018-07-02T06:56:06.057Z,100246.00
2018-07-02T07:01:10.704Z,100244.00
2018-07-02T07:06:15.595Z,100251.00
2018-07-02T07:11:20.053Z,100252.00
2018-07-02T07:16:26.902Z,100255.00
2018-07-02T07:21:31.816Z,100250.00
2018-07-02T07:26:36.394Z,100254.00
2018-07-02T07:31:40.796Z,100260.00
2018-07-02T07:36:45.409Z,100252.00
2018-07-02T07:41:49.863Z,100248.00
2018-07-02T07:46:54.144Z,100249.00
2018-07-02T07:51:58.792Z,100243.00
2018-07-02T07:57:03.421Z,100247.00
2018-07-02T08:02:08.337Z,100245.00
2018-07-02T08:07:12.877Z,100246.00
2018-07-02T08:12:17.620Z,100245.00
2018-07-02T08:17:22.177Z,100244.00
2018-07-02T08:22:26.537Z,100241.00
2018-07-02T08:27:31.203Z,100235.00
2018-07-02T08:32:35.877Z,100238.00
2018-07-02T08:37:40.343Z,100233.00
2018-07-02T08:42:44.856Z,100226.00
2018-07-02T08:47:49.293Z,100226.00
2018-07-02T08:52:53.729Z,100226.00
2018-07-02T08:57:58.528Z,100226.00
2018-07-02T09:03:03.331Z,100215.00
2018-07-02T09:08:08.013Z,100223.00
2018-07-02T09:13:12.487Z,100220.00
2018-07-02T09:18:17.012Z,100210.00
2018-07-02T09:23:21.393Z,100214.00
2018-07-02T09:28:26.057Z,100217.00
2018-07-02T09:33:30.757Z,100208.00
2018-07-02T09:38:35.183Z,100222.00
2018-07-02T09:43:39.576Z,100210.00
2018-07-02T09:48:43.990Z,100208.00
2018-07-02T09:53:48.603Z,100210.00
2018-07-02T09:58:52.973Z,100201.00
2018-07-02T10:03:57.490Z,100194.00
2018-07-02T10:09:02.002Z,100196.00
2018-07-02T10:14:06.568Z,100199.00
2018-07-02T10:19:11.347Z,100202.00
2018-07-02T10:24:15.889Z,100196.00
2018-07-02T10:29:20.612Z,100191.00
2018-07-02T10:34:25.232Z,100192.00
2018-07-02T10:39:30.119Z,100198.00
2018-07-02T10:44:34.591Z,100190.00
2018-07-02T10:49:38.675Z,100183.00
2018-07-02T10:54:43.280Z,100172.00
2018-07-02T10:59:47.901Z,100179.00
2018-07-02T11:04:52.045Z,100165.00
2018-07-02T11:09:56.156Z,100158.00
2018-07-02T11:15:00.788Z,100157.00
2018-07-02T11:20:05.770Z,100150.00
2018-07-02T11:25:10.293Z,100153.00
2018-07-02T11:30:14.447Z,100145.00
2018-07-02T11:35:19.001Z,100143.00
2018-07-02T11:40:23.406Z,100135.00
2018-07-02T11:45:27.596Z,100137.00
2018-07-02T11:50:32.189Z,100137.00
2018-07-02T11:55:36.648Z,100134.00
2018-07-02T12:00:41.129Z,100122.00
2018-07-02T12:05:45.658Z,100127.00
2018-07-02T12:10:50.258Z,100121.00
2018-07-02T12:15:54.797Z,100119.00
2018-07-02T12:20:59.525Z,100123.00
2018-07-02T12:26:03.975Z,100114.00
2018-07-02T12:31:08.396Z,100108.00
2018-07-02T12:36:12.878Z,100112.00
2018-07-02T12:41:17.703Z,100109.00
2018-07-02T12:46:22.092Z,100109.00
2018-07-02T12:51:26.553Z,100095.00
2018-07-02T12:56:31.329Z,100100.00
2018-07-02T13:01:35.929Z,100098.00
2018-07-02T13:06:40.351Z,100096.00
2018-07-02T13:11:44.573Z,100096.00
2018-07-02T13:16:49.205Z,100088.00
2018-07-02T13:21:53.809Z,100076.00
2018-07-02T13:26:58.739Z,100089.00
2018-07-02T13:32:03.316Z,100079.00
2018-07-02T13:37:07.817Z,100073.00
2018-07-02T13:42:12.603Z,100072.00
2018-07-02T13:47:17.057Z,100066.00
2018-07-02T13:52:21.579Z,100061.00
2018-07-02T13:57:26.280Z,100070.00
2018-07-02T14:02:30.861Z,100061.00
2018-07-02T14:07:35.321Z,100057.00
2018-07-02T14:12:39.801Z,100057.00
2018-07-02T14:17:44.304Z,100051.00
2018-07-02T14:22:48.696Z,100048.00
2018-07-02T14:27:53.269Z,100044.00
2018-07-02T14:32:57.829Z,100044.00
2018-07-02T14:38:02.294Z,100035.00
2018-07-02T14:43:06.936Z,100039.00
2018-07-02T14:48:11.481Z,100029.00
2018-07-02T14:53:16.175Z,100033.00
2018-07-02T14:58:20.650Z,100037.00
2018-07-02T15:03:24.871Z,100035.00
2018-07-02T15:08:29.381Z,100039.00
2018-07-02T15:13:33.988Z,100033.00
2018-07-02T15:18:38.408Z,100032.00
2018-07-02T15:23:42.855Z,100028.00
2018-07-02T15:28:47.519Z,100029.00
2018-07-02T15:33:52.065Z,100030.00
2018-07-02T15:38:56.660Z,100027.00
2018-07-02T15:44:01.237Z,100020.00
2018-07-02T15:49:05.735Z,100016.00
2018-07-02T15:54:10.163Z,100025.00
2018-07-02T15:59:14.756Z,100020.00
2018-07-02T16:04:19.356Z,100030.00
2018-07-02T16:09:24.158Z,100019.00
2018-07-02T16:14:28.794Z,100030.00
2018-07-02T16:19:33.181Z,100018.00
2018-07-02T16:24:37.728Z,100015.00
2018-07-02T16:29:42.155Z,100013.00
2018-07-02T16:34:46.629Z,100001.00
2018-07-02T16:39:51.161Z,100006.00
2018-07-02T16:44:55.715Z,100007.00
2018-07-02T16:50:00.128Z,100008.00
2018-07-02T16:55:04.846Z,100003.00
2018-07-02T17:00:09.385Z,100011.00
2018-07-02T17:05:13.798Z,100007.00
2018-07-02T17:10:18.360Z,100005.00
2018-07-02T17:15:23.035Z,100007.00
2018-07-02T17:20:27.538Z,100010.00
2018-07-02T17:25:32.297Z,100011.00
2018-07-02T17:30:36.954Z,100014.00
2018-07-02T17:35:41.720Z,100006.00
2018-07-02T17:40:46.321Z,100010.00
2018-07-02T17:45:51.161Z,100013.00
2018-07-02T17:50:55.789Z,100021.00
2018-07-02T17:56:00.581Z,100013.00
2018-07-02T18:01:05.056Z,100016.00
2018-07-02T18:06:09.856Z,100016.00
2018-07-02T18:11:14.539Z,100009.00
2018-07-02T18:16:20.272Z,100011.00
2018-07-02T18:21:24.884Z,100015.00
2018-07-02T18:26:29.407Z,100012.00
2018-07-02T18:31:34.919Z,100007.00
2018-07-02T18:36:40.035Z,100011.00
2018-07-02T18:41:44.424Z,100019.00
2018-07-02T18:46:49.011Z,100019.00
2018-07-02T18:51:54.023Z,100019.00
2018-07-02T18:56:58.186Z,100025.00
2018-07-02T19:02:02.740Z,100018.00
2018-07-02T19:07:07.192Z,100020.00
2018-07-02T19:12:11.823Z,100027.00
2018-07-02T19:17:16.584Z,100028.00
2018-07-02T19:22:21.297Z,100029.00
2018-07-02T19:27:25.675Z,100026.00
2018-07-02T19:32:30.072Z,100033.00
2018-07-02T19:37:34.461Z,100037.00
2018-07-02T19:42:39.654Z,100038.00
2018-07-02T19:47:44.417Z,100050.00
2018-07-02T19:52:48.919Z,100056.00
2018-07-02T19:57:53.897Z,100060.00
2018-07-02T20:02:58.698Z,100062.00
2018-07-02T20:08:03.400Z,100066.00
2018-07-02T20:13:08.033Z,100071.00
2018-07-02T20:18:12.551Z,100077.00
2018-07-02T20:23:18.052Z,100082.00
2018-07-02T20:28:22.692Z,100086.00
2018-07-02T20:33:27.132Z,100084.00
2018-07-02T20:38:31.844Z,100092.00
2018-07-02T20:43:36.793Z,100094.00
2018-07-02T20:48:41.125Z,100096.00
2018-07-02T20:53:47.253Z,100102.00
2018-07-02T20:58:52.616Z,100100.00
2018-07-02T21:03:57.482Z,100098.00
2018-07-02T21:09:04.049Z,100102.00
2018-07-02T21:14:08.642Z,100097.00
2018-07-02T21:19:13.288Z,100099.00
2018-07-02T21:24:17.838Z,100097.00
2018-07-02T21:29:22.321Z,100099.00
2018-07-02T21:34:28.058Z,100102.00
2018-07-02T21:39:33.420Z,100099.00
2018-07-02T21:44:38.261Z,100097.00
2018-07-02T21:49:43.377Z,100094.00
2018-07-02T21:54:48.056Z,100096.00
2018-07-02T21:59:54.334Z,100100.00
2018-07-02T22:04:59.428Z,100099.00
2018-07-02T22:10:04.528Z,100100.00
2018-07-02T22:15:09.260Z,100097.00
2018-07-02T22:20:14.521Z,100101.00
2018-07-02T22:25:19.253Z,100103.00
2018-07-02T22:30:24.569Z,100098.00
2018-07-02T22:35:29.712Z,100094.00
2018-07-02T22:40:34.672Z,100098.00
2018-07-02T22:45:40.099Z,100096.00
2018-07-02T22:50:45.394Z,100088.00
2018-07-02T22:56:02.915Z,100096.00
2018-07-02T23:01:07.529Z,100096.00
2018-07-02T23:06:11.960Z,100095.00
2018-07-02T23:11:16.525Z,100100.00
2018-07-02T23:16:21.249Z,100096.00
2018-07-02T23:21:26.022Z,100097.00
2018-07-02T23:26:30.744Z,100092.00
2018-07-02T23:31:35.197Z,100091.00
2018-07-02T23:36:40.172Z,100088.00
2018-07-02T23:41:45.360Z,100086.00
2018-07-02T23:46:49.973Z,100082.00
2018-07-02T23:51:54.544Z,100087.00
2018-07-02T23:56:59.881Z,100082.00
